Tiempo atmosférico en la estación meteorológica de Llimiana, Lleida (515 m.)



Fecha
DESCASC
Temp. máxima en grados centígrados (hora)
DESCASC
Temp. mínima en grados centígrados (hora)
DESCASC
Temp. media en grados centígrados
DESCASC
Racha de viento máxima en m/sg (hora)
DESCASC
Velocidad máxima media en intervalos de 10 minutos(hora)
DESCASC
Precipitaciones diarias en mm
DESCASC
Precipitaciones de 00:00 a 06:00 en mm
DESCASC
Precipitaciones de 06:00 a 12:00 en mm
DESCASC
Precipitaciones de 12:00 a 18:00 en mm
DESCASC
Precipitaciones de 18:00 a 24:00 en mm
DESCASC
24-01-2021 13.1 (15:50) 1.8 (09:10) 7.5 13.06 (17:50) 7.22 (17:30) 0.4 0.4 0 0 0
23-01-2021 9.6 (15:00) -0.6 (06:50) 4.5 9.44 (15:10) 6.11 (14:50) 4.6 0 0 0 4.6
22-01-2021 10.5 (17:00) 1.5 (06:20) 6 14.17 (08:40) 7.78 (12:20) 6.2 0.6 5.6 0 0
21-01-2021 5.4 (14:20) 0.4 (00:00) 2.9 3.33 (16:40) 1.94 (17:00) 0 0 0 0 0
20-01-2021 2.3 (14:20) -6.7 (-00:0) -2.2 4.72 (15:10) 2.22 (15:10) 1 0 0 0.4 0.6
19-01-2021 6.7 (16:20) -7.6 (-00:0) -0.5 1.94 (21:30) 1.11 (21:40) 0 0 0 0 0
18-01-2021 6.7 (16:20) -6.4 (-00:0) 0.1 -- (--) -- (--) 0 0 0 0 0
17-01-2021 7 (16:30) -6.3 (-00:0) 0.3 -- (--) -- (--) 0 0 0 0 0
16-01-2021 5.2 (15:00) -8 (-00:0) -1.4 -- (--) -- (--) -- -- -- -- --
15-01-2021 2.1 (16:30) -7 (-00:0) -2.5 -- (--) -- (--) -- -- -- -- --
14-01-2021 -1.4 (14:40) -4.9 (06:50) -3.2 2.78 (18:10) 1.67 (18:10) -- -- -- 1.6 0
13-01-2021 3.3 (16:20) -5.3 (-00:0) -1 2.22 (20:10) 1.39 (20:20) -- -- -- -- --
12-01-2021 1.9 (16:10) -3.6 (-00:0) -0.8 2.5 (00:40) 1.67 (00:40) -- -- -- -- --
11-01-2021 2.8 (14:10) -1.1 (-00:0) 0.8 3.33 (15:20) 2.22 (15:20) -- -- -- -- --
10-01-2021 2.7 (14:00) 0 (04:20) 1.4 3.06 (21:50) 1.39 (22:10) 22.8 3.8 4 12.6 2.4
09-01-2021 1 (15:10) -1.3 (-00:0) -0.1 3.06 (01:30) 1.39 (01:40) 6.2 0 0 4 2.2
08-01-2021 2.2 (15:30) -8.2 (-00:0) -3 6.11 (13:40) 3.61 (13:40) 0 0 0 0 0
07-01-2021 -0.1 (15:20) -6.7 (-00:0) -3.4 2.78 (16:10) 1.39 (18:30) 0 0 0 0 0
06-01-2021 6.9 (15:10) -8.4 (-00:0) -0.7 7.22 (16:10) 3.89 (16:10) 0 0 0 0 0
05-01-2021 7.1 (14:40) -6.8 (-00:0) 0.1 8.06 (15:50) 4.44 (15:50) 0 0 0 0 0
04-01-2021 4.3 (15:20) -6.2 (-00:0) -0.9 7.22 (15:40) 4.72 (15:40) 0 0 0 0 0
03-01-2021 9.4 (15:00) -3.5 (-00:0) 2.9 6.94 (15:20) 4.17 (15:20) 0 0 0 0 0
02-01-2021 3.7 (16:10) -4.5 (-00:0) -0.4 1.94 (19:30) 1.11 (19:20) 0 0 0 0 0
01-01-2021 8.6 (13:40) -0.3 (00:00) 4.2 8.33 (16:00) 4.17 (16:00) 0 0 0 0 0
31-12-2020 6.7 (15:50) -3.8 (-00:0) 1.4 3.33 (18:20) 1.39 (14:20) 0 0 0 0 0
30-12-2020 9.5 (14:20) -3.5 (-00:0) 3 4.72 (15:40) 2.78 (15:30) 0 0 0 0 0
29-12-2020 10 (12:20) 1.5 (00:00) 5.8 7.78 (14:00) 5.28 (14:00) 0 0 0 0 0
28-12-2020 9.5 (13:30) -1.6 (-00:0) 3.9 10.28 (15:20) 6.11 (15:20) 2.2 0 2.2 0 0
27-12-2020 0.2 (15:10) -6.3 (-00:0) -3.1 3.89 (18:30) 1.67 (17:30) 0 0 0 0 0
26-12-2020 8.1 (13:20) -3.4 (-00:0) 2.4 4.17 (02:00) 2.5 (01:10) 0 0 0 0 0

Gráficas

Temp. máximas Temp. mínimas Temp. medias Precipitaciones Rachas de viento máximas Velocidades máximas media en intervalos de 10 minutos

Datos horarios

Fecha y hora oficial Temperatura (ºC) Velocidad del viento (km/h) Dirección del viento Racha (km/h) Dirección de racha Precipitación (mm) Presión (hPa) Tendencia (hPa) Humedad (%)
2021-01-24 23:00:00 7.1 7 Norte 21 Norte 0 -- -- 55
2021-01-24 22:00:00 6.9 3 Nordeste 14 Sudeste 0 -- -- 56
2021-01-24 21:00:00 7.1 6 Sudoeste 17 Oeste 0 -- -- 54
2021-01-24 20:00:00 7.5 3 Este 15 Sudeste 0 -- -- 51
2021-01-24 19:00:00 8.6 6 Sudoeste 34 Noroeste 0 -- -- 47
2021-01-24 18:00:00 9.3 19 Noroeste 47 Oeste 0 -- -- 45
2021-01-24 17:00:00 11.8 17 Oeste 40 Oeste 0 -- -- 40
2021-01-24 16:00:00 13 15 Oeste 35 Oeste 0 -- -- 39
2021-01-24 15:00:00 12.4 14 Oeste 33 Sudoeste 0 -- -- 38
2021-01-24 14:00:00 12.6 19 Oeste 33 Oeste 0 -- -- 45
2021-01-24 13:00:00 11.7 5 Noroeste 13 Noroeste 0 -- -- 53
2021-01-24 12:00:00 9 3 Oeste 12 Oeste 0 -- -- 80
2021-01-24 11:00:00 7.3 2 Sudoeste 7 Oeste 0 -- -- 81
2021-01-24 10:00:00 4.7 0 Calma 10 Sudeste 0 -- -- 99
2021-01-24 09:00:00 2 2 Norte 10 Este 0 -- -- 93
2021-01-24 08:00:00 2.5 3 Norte 12 Este 0 -- -- 93
2021-01-24 07:00:00 2.7 6 Este 14 Nordeste 0 -- -- 92
2021-01-24 06:00:00 4 5 Este 12 Sudeste 0 -- -- 95
2021-01-24 05:00:00 2.1 3 Sudeste 9 Sudeste 0 -- -- 92
2021-01-24 04:00:00 2.6 3 Sudeste 9 Norte 0 -- -- 92
2021-01-24 03:00:00 3.1 2 Este 9 Sudeste 0 -- -- 91
2021-01-24 02:00:00 3.4 5 Sudeste 12 Sudeste 0.2 -- -- 91
2021-01-24 01:00:00 3.6 6 Norte 14 Sudeste 0.2 -- -- 90
2021-01-24 00:00:00 3.7 4 Sudeste 15 Norte 1.2 -- -- 88
2021-01-23 23:00:00 4.1 0 Calma 5 Noroeste 1.2 -- -- 88
2021-01-23 22:00:00 4.4 0 Calma 8 Sudeste 0.2 -- -- 86
2021-01-23 21:00:00 4.7 4 Sudeste 6 Sudeste 0.8 -- -- 86
2021-01-23 20:00:00 5.2 2 Sudeste 13 Norte 0.8 -- -- 82
2021-01-23 19:00:00 5.6 5 Nordeste 18 Noroeste 0.4 -- -- 80
2021-01-23 18:00:00 6.8 5 Sudoeste 15 Sudoeste 0 -- -- 73
2021-01-23 17:00:00 7.7 2 Nordeste 15 Oeste 0 -- -- 64
2021-01-23 16:00:00 8.5 14 Noroeste 34 Noroeste 0 -- -- 60
2021-01-23 15:00:00 9.6 19 Oeste 32 Noroeste 0 -- -- 54
2021-01-23 14:00:00 7.8 12 Oeste 28 Oeste 0 -- -- 59
2021-01-23 13:00:00 5.1 5 Nordeste 23 Oeste 0 -- -- 70
2021-01-23 12:00:00 2.5 6 Nordeste 17 Noroeste 0 -- -- 74
2021-01-23 11:00:00 1.3 5 Este 19 Oeste 0 -- -- 78
2021-01-23 10:00:00 2.4 3 Este 10 Norte 0 -- -- 75
2021-01-23 09:00:00 0.1 0 Calma 5 Este 0 -- -- 80
2021-01-23 08:00:00 0 0 Calma 9 Nordeste 0 -- -- 79
2021-01-23 07:00:00 -0.5 3 Sudeste 7 Este 0 -- -- 80
2021-01-23 06:00:00 -0.1 3 Nordeste 9 Sudeste 0 -- -- 76
2021-01-23 05:00:00 0.7 3 Sudeste 15 Oeste 0 -- -- 71
2021-01-23 04:00:00 2.2 5 Este 14 Este 0 -- -- 65
2021-01-23 03:00:00 3.8 2 Sudeste 24 Norte 0 -- -- 57
2021-01-23 02:00:00 4.5 4 Norte 15 Este 0 -- -- 55
2021-01-23 01:00:00 4.6 6 Nordeste 16 Este 0 -- -- 55
2021-01-23 00:00:00 4.7 5 Este 15 Este 0 -- -- 56
2021-01-22 23:00:00 4 5 Sudeste 14 Este 0 -- -- 59
2021-01-22 22:00:00 4.8 3 Sudoeste 25 Oeste 0 -- -- 55
2021-01-22 21:00:00 4.9 12 Oeste 22 Oeste 0 -- -- 57
2021-01-22 20:00:00 4.8 3 Sur 32 Noroeste 0 -- -- 62
2021-01-22 19:00:00 6.5 14 Oeste 33 Noroeste 0 -- -- 58
2021-01-22 18:00:00 7.5 9 Noroeste 21 Norte 0 -- -- 56
2021-01-22 17:00:00 10.5 5 Noroeste 21 Norte 0 -- -- 50
2021-01-22 16:00:00 9.6 12 Nordeste 27 Nordeste 0 -- -- 52
2021-01-22 15:00:00 8 6 Nordeste 38 Oeste 0 -- -- 63
2021-01-22 14:00:00 8 20 Oeste 44 Oeste 0 -- -- 64
2021-01-22 13:00:00 8 18 Noroeste 51 Oeste 0 -- -- 64
2021-01-22 12:00:00 7.1 15 Noroeste 38 Oeste 0.2 -- -- 74
2021-01-22 11:00:00 7.2 13 Noroeste 33 Oeste 0 -- -- 73
2021-01-22 10:00:00 7 9 Oeste 37 Noroeste 0 -- -- 75
2021-01-22 09:00:00 6 11 Noroeste 51 Oeste 3.8 -- -- 91
2021-01-22 08:00:00 2.3 9 Sudeste 27 Norte 1 -- -- 100
2021-01-22 07:00:00 2.4 10 Este 17 Nordeste 0.6 -- -- 100
2021-01-22 06:00:00 1.6 3 Este 10 Sudoeste 0.2 -- -- 96
2021-01-22 05:00:00 2 2 Sudoeste 8 Este 0 -- -- 95
2021-01-22 04:00:00 2.1 0 Calma 10 Norte 0 -- -- 95
2021-01-22 03:00:00 2.2 3 Sudeste 11 Sudeste 0.4 -- -- 95
2021-01-22 02:00:00 1.9 0 Calma 8 Norte 0 -- -- 93
2021-01-22 01:00:00 2.2 2 Oeste 7 Noroeste 0 -- -- 93
2021-01-22 00:00:00 2.5 3 Noroeste 9 Sudeste 0 -- -- 92
2021-01-21 23:00:00 2.5 2 Nordeste 9 Norte 0 -- -- 92
2021-01-21 22:00:00 2.4 2 Sudeste 9 Sudoeste 0 -- -- 92
2021-01-21 21:00:00 2.9 3 Norte 9 Este 0 -- -- 90
2021-01-21 20:00:00 2.8 3 Noroeste 7 Sudoeste 0 -- -- 90
2021-01-21 19:00:00 3.3 0 Calma 4 Noroeste 0 -- -- 89
2021-01-21 18:00:00 3.4 3 Este 9 Sudeste 0 -- -- 88
2021-01-21 17:00:00 3.8 7 Norte 12 Sudeste 0 -- -- 83
2021-01-21 16:00:00 5.1 2 Este 6 Este 0 -- -- 81
2021-01-21 15:00:00 5.4 0 Calma 6 Noroeste 0 -- -- 79
2021-01-21 14:00:00 5 2 Noroeste 7 Noroeste 0 -- -- 82
2021-01-21 13:00:00 4.2 3 Sudoeste 7 Sudeste 0 -- -- 86
2021-01-21 12:00:00 3 0 Calma 6 Oeste 0 -- -- 90
2021-01-21 11:00:00 2.5 2 Oeste 6 Norte 0 -- -- 93
2021-01-21 10:00:00 1.7 0 Calma 8 Norte 0 -- -- 93
2021-01-21 09:00:00 1.1 0 Calma 6 Sudeste 0 -- -- 93
2021-01-21 08:00:00 0.7 0 Calma 5 Este 0 -- -- 92
2021-01-21 07:00:00 0.7 0 Calma 5 Noroeste 0 -- -- 92
2021-01-21 06:00:00 0.6 0 Calma 4 Sudoeste 0 -- -- 92
2021-01-21 05:00:00 0.8 0 Calma 2 Este 0 -- -- 92
2021-01-21 04:00:00 0.8 0 Calma 5 Norte 0 -- -- 92
2021-01-21 03:00:00 0.7 0 Calma 5 Sur 0 -- -- 92
2021-01-21 02:00:00 0.5 2 Sudeste 8 Sudeste 0 -- -- 91
2021-01-21 01:00:00 0.7 2 Norte 6 Noroeste 0 -- -- 90
2021-01-21 00:00:00 0.9 3 Norte 12 Sudeste 0 -- -- 90
2021-01-20 23:00:00 0.4 4 Sudeste 6 Sudeste 0.2 -- -- 89
2021-01-20 22:00:00 0.5 0 Calma 6 Norte 0.4 -- -- 89
2021-01-20 21:00:00 0.6 2 Nordeste 13 Este 0 -- -- 89
2021-01-20 20:00:00 0.1 0 Calma 8 Este 0 -- -- 89
2021-01-20 19:00:00 0.5 3 Sudoeste 12 Norte 0 -- -- 86
2021-01-20 18:00:00 0.7 4 Norte 7 Sudeste 0 -- -- 86
2021-01-20 17:00:00 0.7 6 Sudeste 10 Sudeste 0 -- -- 85
2021-01-20 16:00:00 1.2 2 Sur 17 Sudeste 0.4 -- -- 80
2021-01-20 15:00:00 1.7 7 Sudeste 17 Sudeste 0 -- -- 71
2021-01-20 14:00:00 1.3 3 Noroeste 10 Sur 0 -- -- 72
2021-01-20 13:00:00 1.9 3 Noroeste 6 Oeste 0 -- -- 67
2021-01-20 12:00:00 -0.2 2 Sudoeste 5 Sudoeste 0 -- -- 76
2021-01-20 11:00:00 -3.5 0 Calma 6 Oeste 0 -- -- 88
2021-01-20 10:00:00 -5 3 Norte 7 Norte 0 -- -- 89
2021-01-20 09:00:00 -6.6 0 Calma 2 Norte 0 -- -- 87
2021-01-20 08:00:00 -6.2 0 Calma 2 Este 0 -- -- 87
2021-01-20 07:00:00 -5.6 0 Calma 3 Este 0 -- -- 89
2021-01-20 06:00:00 -5.8 0 Calma 8 Norte 0 -- -- 88
2021-01-20 05:00:00 -5.4 0 Calma 8 Norte 0 -- -- 88
2021-01-20 04:00:00 -4.7 0 Calma 5 Sur 0 -- -- 89
2021-01-20 03:00:00 -5 0 Calma 4 Sudeste 0 -- -- 86
2021-01-20 02:00:00 -4.3 0 Calma 5 Este 0 -- -- 87
2021-01-20 01:00:00 -3.9 2 Norte 6 Norte 0 -- -- 86
2021-01-20 00:00:00 -3.7 0 Calma 2 Este 0 -- -- 85
2021-01-19 23:00:00 -2.6 0 Calma 6 Norte 0 -- -- 79
2021-01-19 22:00:00 -1.6 0 Calma 7 Este 0 -- -- 78
2021-01-19 21:00:00 -1.5 2 Noroeste 5 Noroeste 0 -- -- 75
2021-01-19 20:00:00 -0.3 4 Norte 5 Norte 0 -- -- 70
2021-01-19 19:00:00 0.3 0 Calma 3 Norte 0 -- -- 69
2021-01-19 18:00:00 2 2 Norte 3 Este 0 -- -- 62
2021-01-19 17:00:00 5.8 0 Calma 5 Sudoeste 0 -- -- 50
2021-01-19 16:00:00 6.2 0 Calma 4 Sur 0 -- -- 50
2021-01-19 15:00:00 4.5 3 Oeste 4 Oeste 0 -- -- 58
2021-01-19 14:00:00 3.1 3 Noroeste 5 Sudoeste 0 -- -- 65
2021-01-19 13:00:00 0.7 2 Oeste 4 Sudoeste 0 -- -- 72
2021-01-19 12:00:00 -2.4 0 Calma 4 Sudoeste 0 -- -- 84
2021-01-19 11:00:00 -4.5 0 Calma 3 Sur 0 -- -- 91
2021-01-19 10:00:00 -6.1 0 Calma 2 Noroeste 0 -- -- 89
2021-01-19 09:00:00 -7.4 0 Calma 0 Calma 0 -- -- 88
2021-01-19 08:00:00 -7.6 0 Calma 2 Norte 0 -- -- 88
2021-01-19 07:00:00 -7 0 Calma 0 Calma 0 -- -- 87
2021-01-19 06:00:00 -6.2 0 Calma 4 Sur 0 -- -- 89
2021-01-19 05:00:00 -6.3 0 Calma 2 Sur 0 -- -- 86
2021-01-19 04:00:00 -4.4 0 Calma 2 Nordeste 0 -- -- 89
2021-01-19 03:00:00 -4.9 0 Calma 2 Norte 0 -- -- 88
2021-01-19 02:00:00 -3.9 0 Calma 2 Este 0 -- -- 88
2021-01-19 01:00:00 -3.7 0 Calma 4 Oeste 0 -- -- 88
2021-01-19 00:00:00 -3 0 Calma 4 Norte 0 -- -- 85
2021-01-18 23:00:00 -2.2 2 Sudeste 4 Este 0 -- -- 84
2021-01-18 22:00:00 -1.7 3 Este 5 Norte 0 -- -- 83
2021-01-18 21:00:00 -0.4 0 Calma 4 Nordeste 0 -- -- 78
2021-01-18 20:00:00 0.1 0 Calma 4 Este 0 -- -- 79
2021-01-18 19:00:00 1 0 Calma 6 Sudeste 0 -- -- 77
2021-01-18 18:00:00 1.8 0 Calma 6 Sudoeste 0 -- -- 70
2021-01-18 17:00:00 5.7 0 Calma 4 Oeste 0 -- -- 56
2021-01-18 16:00:00 6.5 0 Calma 5 Oeste 0 -- -- 56
2021-01-18 15:00:00 4.7 0 Calma 6 Oeste 0 -- -- 61
2021-01-18 14:00:00 4 2 Oeste 4 Noroeste 0 -- -- 65
2021-01-18 13:00:00 1.6 0 Calma 4 Oeste 0 -- -- 74
2021-01-18 12:00:00 -1.1 0 Calma 4 Oeste 0 -- -- 89
2021-01-18 11:00:00 -3.8 0 Calma 4 Sudoeste 0 -- -- 91
2021-01-18 10:00:00 -5.2 0 Calma 2 Sur 0 -- -- 90
2021-01-18 09:00:00 -6.2 0 Calma 3 Sudeste 0 -- -- 89
2021-01-18 08:00:00 -6.4 0 Calma 0 Calma 0 -- -- 88
2021-01-18 07:00:00 -5.8 0 Calma 2 Oeste 0 -- -- 89
2021-01-18 06:00:00 -5.3 0 Calma 3 Este 0 -- -- 90
2021-01-18 05:00:00 -4.9 0 Calma 2 Noroeste 0 -- -- 88
2021-01-18 04:00:00 -4 0 Calma 4 Norte 0 -- -- 88
2021-01-18 03:00:00 -2.9 2 Norte 5 Noroeste -- -- -- 87
2021-01-18 02:00:00 -3 0 Calma 4 Noroeste 0 -- -- 87
2021-01-18 01:00:00 -1.8 0 Calma 5 Sudeste 0 -- -- 88
2021-01-18 00:00:00 -2.2 0 Calma 5 Norte 0 -- -- 83
2021-01-17 23:00:00 -0.6 0 Calma 4 Este 0 -- -- 82
2021-01-17 22:00:00 -0.4 0 Calma 6 Norte 0 -- -- 79
2021-01-17 21:00:00 0.2 4 Norte 8 Norte 0 -- -- 77
2021-01-17 20:00:00 0.8 0 Calma 7 Norte 0 -- -- 74
2021-01-17 19:00:00 2 3 Nordeste 8 Sudeste 0 -- -- 68
2021-01-17 18:00:00 2.7 2 Este 5 Este 0 -- -- 65
2021-01-17 17:00:00 6.4 0 Calma 4 Noroeste 0 -- -- 50
2021-01-17 16:00:00 6.6 2 Noroeste 6 Oeste 0 -- -- 49
2021-01-17 15:00:00 6.6 3 Oeste 6 Noroeste 0 -- -- 50
2021-01-17 14:00:00 5.3 3 Noroeste 5 Noroeste 0 -- -- 55
2021-01-17 13:00:00 3.7 0 Calma 5 Sudoeste 0 -- -- 59
2021-01-17 12:00:00 1.6 0 Calma 7 Sur 0 -- -- 68
2021-01-17 11:00:00 -1.9 2 Sudoeste 6 Norte 0 -- -- 81
2021-01-17 10:00:00 -3.8 2 Norte 8 Este 0 -- -- 90
2021-01-17 09:00:00 -6 0 Calma 7 Norte 0 -- -- 88
2021-01-17 08:00:00 -5.9 0 Calma 5 Sudeste 0 -- -- 88
2021-01-17 07:00:00 -5.7 2 Noroeste 6 Noroeste 0 -- -- 87
2021-01-17 06:00:00 -5.4 0 Calma 4 Norte 0 -- -- 87
2021-01-17 05:00:00 -4.4 0 Calma 4 Este 0 -- -- 88
2021-01-17 04:00:00 -4.7 0 Calma 3 Oeste 0 -- -- 87
2021-01-17 03:00:00 -4.5 3 Sudeste 6 Sudeste 0 -- -- 88
2021-01-17 02:00:00 -3.8 0 Calma 5 Este 0 -- -- 85
2021-01-17 01:00:00 -2.6 0 Calma 6 Este 0 -- -- 82
2021-01-17 00:00:00 -2.7 4 Nordeste 9 Este 0 -- -- 83
2021-01-16 23:00:00 -2 2 Noroeste 7 Norte 0 -- -- 80
2021-01-16 22:00:00 -1.3 4 Norte 8 Norte 0 -- -- 78
2021-01-16 21:00:00 -1.2 0 Calma 4 Este 0 -- -- 78
2021-01-16 20:00:00 -0.1 0 Calma 6 Noroeste 0 -- -- 76
2021-01-16 19:00:00 0.6 0 Calma 9 Sudeste 0 -- -- 74
2021-01-16 18:00:00 1 0 Calma 5 Norte 0 -- -- 68
2021-01-16 17:00:00 3.6 3 Norte 7 Sudeste 0 -- -- 60
2021-01-16 16:00:00 4.1 0 Calma 5 Oeste 0 -- -- 57
2021-01-16 15:00:00 5.2 2 Noroeste 8 Sur 0 -- -- 54
2021-01-16 14:00:00 3.3 0 Calma 8 Sudeste 0 -- -- 56
2021-01-16 13:00:00 1.5 3 Sudoeste 9 Noroeste 0 -- -- 65
2021-01-16 12:00:00 -0.7 2 Sudoeste 5 Este 0.2 -- -- 77
2021-01-16 11:00:00 -4.6 0 Calma 6 Sudoeste 0 -- -- 83
2021-01-16 10:00:00 -6.7 0 Calma 6 Norte 0 -- -- 87
2021-01-16 09:00:00 -7.3 0 Calma 5 Este 0 -- -- 88
2021-01-16 08:00:00 -8 0 Calma 5 Norte 0 -- -- 86
2021-01-16 07:00:00 -6.6 0 Calma 3 Sudeste 0 -- -- 88
2021-01-16 06:00:00 -6.9 0 Calma 2 Este 0 -- -- 89
2021-01-16 05:00:00 -7 0 Calma 4 Este 0 -- -- 88
2021-01-16 04:00:00 -7.2 3 Noroeste 7 Norte 0 -- -- 87
2021-01-16 03:00:00 -6.3 0 Calma 6 Oeste 0 -- -- 88
2021-01-16 02:00:00 -5.9 0 Calma 5 Nordeste 0 -- -- 90
2021-01-16 01:00:00 -5.8 0 Calma 5 Norte 0 -- -- 88
2021-01-16 00:00:00 -4.6 0 Calma 5 Sudeste 0 -- -- 89
2021-01-15 23:00:00 -5.3 0 Calma 6 Norte 0 -- -- 88
2021-01-15 22:00:00 -4.1 0 Calma 4 Norte 0 -- -- 89
2021-01-15 21:00:00 -3.8 0 Calma 6 Este 0 -- -- 87
2021-01-15 20:00:00 -3 2 Norte 6 Noroeste 0 -- -- 87
2021-01-15 19:00:00 -2.8 3 Nordeste 8 Noroeste 0 -- -- 84
2021-01-15 18:00:00 -1.5 3 Noroeste 14 Nordeste 0 -- -- 80
2021-01-15 17:00:00 1.5 0 Calma 4 Noroeste 0.2 -- -- 70
2021-01-15 16:00:00 1.7 3 Noroeste 6 Noroeste 0.8 -- -- 68
2021-01-15 15:00:00 1.5 0 Calma 4 Oeste 1 -- -- 72
2021-01-15 14:00:00 -1.5 0 Calma 4 Oeste 0.6 -- -- 81
2021-01-15 13:00:00 -3.5 0 Calma -- -- 0.4 -- -- 84
2021-01-15 12:00:00 -4 0 Calma -- -- 0 -- -- 86
2021-01-15 11:00:00 -5.2 0 Calma -- -- 0 -- -- 91
2021-01-15 10:00:00 -6.6 0 Calma -- -- 0 -- -- 88
2021-01-15 09:00:00 -6.9 0 Calma -- -- 0 -- -- 89
2021-01-15 08:00:00 -6.7 0 Calma -- -- 0 -- -- 90
2021-01-15 07:00:00 -6.3 0 Calma -- -- 0 -- -- 90
2021-01-15 06:00:00 -6.1 0 Calma -- -- 0 -- -- 90
2021-01-15 05:00:00 -5.9 0 Calma -- -- 0 -- -- 90
2021-01-15 04:00:00 -5.5 0 Calma -- -- 0 -- -- 91
2021-01-15 03:00:00 -5.3 0 Calma -- -- 0 -- -- 90
2021-01-15 02:00:00 -- 0 Calma -- -- 0 -- -- --
2021-01-15 01:00:00 -4.7 0 Calma -- -- 0 -- -- 91
2021-01-15 00:00:00 -4.2 0 Calma -- -- 0 -- -- 91
2021-01-14 23:00:00 -4.1 0 Calma 4 Noroeste 0 -- -- 91
2021-01-14 22:00:00 -3.8 2 Sudoeste 6 Noroeste 0 -- -- 91
2021-01-14 21:00:00 -3.4 0 Calma 5 Noroeste 0 -- -- 91
2021-01-14 20:00:00 -3 2 Noroeste 6 Sur 0 -- -- 91
2021-01-14 19:00:00 -2.8 2 Noroeste 10 Norte 0 -- -- 90
2021-01-14 18:00:00 -2.4 4 Noroeste 7 Norte 0 -- -- 89
2021-01-14 17:00:00 -1.9 0 Calma 5 Oeste 0.2 -- -- 88
2021-01-14 16:00:00 -1.9 0 Calma 7 Noroeste 0.2 -- -- 87
2021-01-14 15:00:00 -1.6 3 Noroeste 5 Noroeste 0.6 -- -- 85
2021-01-14 14:00:00 -1.9 2 Noroeste 6 Noroeste 0.4 -- -- 87
2021-01-14 13:00:00 -2.5 0 Calma 4 Oeste 0.2 -- -- 90
2021-01-14 12:00:00 -3.4 0 Calma 4 Sudeste 0 -- -- 90
2021-01-14 11:00:00 -3.8 0 Calma 4 Noroeste 0 -- -- 91
2021-01-14 10:00:00 -4.6 3 Sudeste 6 Sudeste 0 -- -- 91
2021-01-14 09:00:00 -4.8 0 Calma 3 Norte 0 -- -- 91
2021-01-14 08:00:00 -4.8 0 Calma 3 Oeste 0 -- -- 91
2021-01-14 07:00:00 -4.9 2 Sudeste 4 Sudeste 0 -- -- 91
2021-01-14 06:00:00 -4.7 2 Norte 4 Noroeste 0 -- -- 91
2021-01-14 05:00:00 -4.7 0 Calma 4 Noroeste 0 -- -- 91
2021-01-14 04:00:00 -4.8 0 Calma 4 Noroeste 0 -- -- 92
2021-01-14 03:00:00 -4.8 0 Calma 3 Norte 0 -- -- 91
2021-01-14 02:00:00 -4.7 0 Calma 3 Este 0 -- -- 90
2021-01-14 01:00:00 -4.7 0 Calma 4 Norte 0 -- -- 90
2021-01-14 00:00:00 -4.3 0 Calma 3 Sudeste 0 -- -- 89
2021-01-13 23:00:00 -3.8 0 Calma 4 Este 0 -- -- 89
2021-01-13 22:00:00 -3.4 0 Calma 4 Norte 0 -- -- 87
2021-01-13 21:00:00 -2.6 0 Calma 8 Sudeste 0 -- -- 87
2021-01-13 20:00:00 -1.8 3 Norte 5 Norte 0 -- -- 84
2021-01-13 19:00:00 -1.5 2 Sudeste 6 Norte 0 -- -- 83
2021-01-13 18:00:00 -0.2 3 Norte 6 Norte 0 -- -- 77
2021-01-13 17:00:00 2.3 2 Sur 5 Noroeste 0.2 -- -- 65
2021-01-13 16:00:00 3.1 3 Noroeste 5 Noroeste 1.2 -- -- 66
2021-01-13 15:00:00 2.3 2 Oeste 6 Oeste 1.4 -- -- 70
2021-01-13 14:00:00 0.7 0 Calma 6 Noroeste 1 -- -- 77
2021-01-13 13:00:00 -0.7 2 Norte 6 Noroeste 0.6 -- -- 83
2021-01-13 12:00:00 -2.2 2 Sudoeste 5 Sur 0.2 -- -- 91
2021-01-13 11:00:00 -3.7 0 Calma 3 Noroeste 0 -- -- 91
2021-01-13 10:00:00 -4.3 0 Calma 6 Norte 0 -- -- 92
2021-01-13 09:00:00 -5.2 3 Norte 5 Nordeste 0 -- -- 90
2021-01-13 08:00:00 -4.9 0 Calma 3 Norte 0 -- -- 90
2021-01-13 07:00:00 -5 0 Calma 8 Sudeste 0 -- -- 90
2021-01-13 06:00:00 -5.3 2 Oeste 4 Oeste 0 -- -- 90
2021-01-13 05:00:00 -4.8 0 Calma 4 Norte 0 -- -- 90
2021-01-13 04:00:00 -4.5 2 Norte 6 Este 0 -- -- 89
2021-01-13 03:00:00 -4.1 0 Calma 4 Sudeste 0 -- -- 89
2021-01-13 02:00:00 -3.9 2 Norte 8 Nordeste 0 -- -- 90
2021-01-13 01:00:00 -3.7 0 Calma 4 Sudeste 0 -- -- 88
2021-01-13 00:00:00 -3.6 0 Calma 4 Norte 0 -- -- 88
2021-01-12 23:00:00 -3.4 4 Norte 8 Sudeste 0 -- -- 88
2021-01-12 22:00:00 -3.5 0 Calma 5 Norte 0 -- -- 87
2021-01-12 21:00:00 -3.3 0 Calma 5 Nordeste 0 -- -- 86
2021-01-12 20:00:00 -2.6 3 Este 5 Este 0 -- -- 85
2021-01-12 19:00:00 -2.8 2 Este 3 Este 0 -- -- 83
2021-01-12 18:00:00 -1.6 2 Sudeste 4 Norte 0 -- -- 79
2021-01-12 17:00:00 0.9 2 Noroeste 6 Noroeste 0.4 -- -- 67
2021-01-12 16:00:00 1.8 3 Noroeste 8 Oeste 1 -- -- 65
2021-01-12 15:00:00 0.8 5 Noroeste 8 Nordeste 0.6 -- -- 69
2021-01-12 14:00:00 -0.2 2 Sudoeste 6 Noroeste 0.6 -- -- 75
2021-01-12 13:00:00 -1 4 Oeste 8 Oeste 0.4 -- -- 75
2021-01-12 12:00:00 -1.3 0 Calma 5 Nordeste 0 -- -- 79
2021-01-12 11:00:00 -2.2 2 Este 6 Sur 0 -- -- 82
2021-01-12 10:00:00 -2.6 3 Norte 6 Noroeste 0 -- -- 84
2021-01-12 09:00:00 -2.8 0 Calma 7 Norte 0 -- -- 84
2021-01-12 08:00:00 -2.7 4 Noroeste 7 Oeste 0 -- -- 84
2021-01-12 07:00:00 -2.5 0 Calma 4 Sur 0 -- -- 85
2021-01-12 06:00:00 -2.6 2 Oeste 5 Norte 0 -- -- 85
2021-01-12 05:00:00 -2.2 0 Calma 6 Nordeste 0 -- -- 84
2021-01-12 04:00:00 -2 0 Calma 4 Nordeste 0 -- -- 85
2021-01-12 03:00:00 -1.8 0 Calma 5 Norte 0 -- -- 85
2021-01-12 02:00:00 -1.6 0 Calma 4 Norte 0 -- -- 85
2021-01-12 01:00:00 -1.5 2 Sudoeste 9 Noroeste 0 -- -- 85
2021-01-12 00:00:00 -1 0 Calma 6 Oeste 0 -- -- 84
2021-01-11 23:00:00 -0.9 3 Este 6 Este 0 -- -- 84
2021-01-11 22:00:00 -1.1 6 Norte 8 Nordeste 0 -- -- 84
2021-01-11 21:00:00 -0.5 5 Noroeste 10 Noroeste 0 -- -- 82
2021-01-11 20:00:00 0.3 0 Calma 7 Nordeste 0 -- -- 78
2021-01-11 19:00:00 -0.3 0 Calma 5 Este 0 -- -- 85
2021-01-11 18:00:00 -0.4 4 Este 5 Este 0.2 -- -- 83
2021-01-11 17:00:00 1.8 3 Noroeste 4 Sudeste 0.6 -- -- 76
2021-01-11 16:00:00 2.3 3 Sudeste 12 Sudeste 1.4 -- -- 71
2021-01-11 15:00:00 2.4 5 Sudeste 10 Sudeste 2 -- -- 73
2021-01-11 14:00:00 2.6 0 Calma 3 Oeste 2.2 -- -- 75
2021-01-11 13:00:00 2 3 Oeste 6 Oeste 1.6 -- -- 78
2021-01-11 12:00:00 1.2 2 Sudoeste 7 Sudoeste 1 -- -- 82
2021-01-11 11:00:00 0.7 3 Sudoeste 6 Oeste 0.6 -- -- 90
2021-01-11 10:00:00 0.2 0 Calma 4 Oeste 0.2 -- -- 92
2021-01-11 09:00:00 -0.2 2 Sur 6 Sudoeste 0 -- -- 93
2021-01-11 08:00:00 0 0 Calma 3 Norte 0 -- -- 93
2021-01-11 07:00:00 0.1 2 Norte 5 Sudeste 0.2 -- -- 92
2021-01-11 06:00:00 0.2 4 Sur 8 Sudoeste 0 -- -- 92
2021-01-11 05:00:00 0.4 0 Calma 5 Sudoeste 0.2 -- -- 92
2021-01-11 04:00:00 0.7 0 Calma 3 Sur 0.2 -- -- 92
2021-01-11 03:00:00 0.6 0 Calma 4 Sudoeste 0.2 -- -- 92
2021-01-11 02:00:00 0.6 3 Sudoeste 6 Sudoeste 0.2 -- -- 92
2021-01-11 01:00:00 0.6 0 Calma 5 Sudoeste 0.2 -- -- 91
2021-01-11 00:00:00 0.7 0 Calma 7 Sur 0.2 -- -- 92
2021-01-10 23:00:00 0.8 2 Sur 10 Sudoeste 0.4 -- -- 92
2021-01-10 22:00:00 0.7 4 Sudoeste 11 Sur 0.6 -- -- 92
2021-01-10 21:00:00 0.9 0 Calma 5 Sudeste 0.4 -- -- 92
2021-01-10 20:00:00 0.8 0 Calma 6 Norte 0.4 -- -- 91
2021-01-10 19:00:00 0.7 0 Calma 6 Sudeste 0.4 -- -- 91
2021-01-10 18:00:00 0.7 0 Calma 0 Calma 0.8 -- -- 88
2021-01-10 17:00:00 1.3 0 Calma -- -- 1.6 -- -- 86
2021-01-10 16:00:00 2 0 Calma 0 Calma 2.2 -- -- 83
2021-01-10 15:00:00 2.3 0 Calma -- -- 2.4 -- -- 82
2021-01-10 14:00:00 2.7 0 Calma -- -- 3.2 -- -- 80
2021-01-10 13:00:00 2.2 0 Calma -- -- 2.4 -- -- 83
2021-01-10 12:00:00 2 0 Calma -- -- 1.8 -- -- 85
2021-01-10 11:00:00 1.1 0 Calma -- -- 0.8 -- -- 89
2021-01-10 10:00:00 0.5 0 Calma -- -- 0.4 -- -- 91
2021-01-10 09:00:00 0.1 0 Calma -- -- 0.2 -- -- 91
2021-01-10 08:00:00 0 0 Calma -- -- 0.2 -- -- 91
2021-01-10 07:00:00 0 0 Calma -- -- 0.6 -- -- 91
2021-01-10 06:00:00 0.1 0 Calma -- -- 0.8 -- -- 91
2021-01-10 05:00:00 0 0 Calma -- -- 0.6 -- -- 91
2021-01-10 04:00:00 0.1 0 Calma -- -- 0.6 -- -- 91
2021-01-10 03:00:00 0.1 0 Calma -- -- 1 -- -- 91
2021-01-10 02:00:00 0.1 0 Calma -- -- 0.4 -- -- 91
2021-01-10 01:00:00 0.1 0 Calma -- -- 0.4 -- -- 90
2021-01-10 00:00:00 0.1 0 Calma -- -- 0.6 -- -- 90
2021-01-09 23:00:00 0.1 0 Calma -- -- 0.2 -- -- 90
2021-01-09 22:00:00 0.2 0 Calma -- -- 0.2 -- -- 90
2021-01-09 21:00:00 0.1 0 Calma -- -- 0.2 -- -- 90
2021-01-09 20:00:00 0.1 0 Calma -- -- 0.2 -- -- 89
2021-01-09 19:00:00 0.1 0 Calma -- -- 0.8 -- -- 88
2021-01-09 18:00:00 0.3 0 Calma -- -- 0.6 -- -- 87
2021-01-09 17:00:00 0.7 0 Calma 0 Calma 0.8 -- -- 86
2021-01-09 16:00:00 0.8 0 Calma 3 Sur 0.8 -- -- 85
2021-01-09 15:00:00 0.9 0 Calma -- -- 0.6 -- -- 86
2021-01-09 14:00:00 0.5 0 Calma -- -- 0.8 -- -- 84
2021-01-09 13:00:00 0.4 0 Calma -- -- 0.4 -- -- 84
2021-01-09 12:00:00 -0.3 0 Calma -- -- 0 -- -- 84
2021-01-09 11:00:00 -0.6 0 Calma -- -- 0 -- -- 85
2021-01-09 10:00:00 -1 0 Calma -- -- 0 -- -- 86
2021-01-09 09:00:00 -1.2 0 Calma -- -- 0 -- -- 85
2021-01-09 08:00:00 -1.3 0 Calma -- -- 0 -- -- 84
2021-01-09 07:00:00 -1.3 0 Calma -- -- 0 -- -- 84
2021-01-09 06:00:00 -1.2 0 Calma 4 Este 0 -- -- 83
2021-01-09 05:00:00 -1.2 2 Este 5 Este 0 -- -- 80
2021-01-09 04:00:00 -0.9 0 Calma 6 Oeste 0 -- -- 76
2021-01-09 03:00:00 -1 2 Norte 8 Norte 0 -- -- 74
2021-01-09 02:00:00 -0.6 3 Sudeste 11 Sudeste 0 -- -- 69
2021-01-09 01:00:00 -0.9 0 Calma 4 Norte 0 -- -- 73
2021-01-09 00:00:00 -0.7 2 Norte 9 Sudoeste 0 -- -- 72
2021-01-08 23:00:00 -0.7 3 Sur 6 Sudeste 0 -- -- 70
2021-01-08 22:00:00 -0.4 0 Calma 6 Este 0 -- -- 69
2021-01-08 21:00:00 -0.4 3 Sudeste 19 Sur 0 -- -- 69
2021-01-08 20:00:00 -0.1 3 Sur 14 Sur 0 -- -- 67
2021-01-08 19:00:00 0 3 Sur 13 Sur 0 -- -- 65
2021-01-08 18:00:00 0.5 3 Sur 17 Sudoeste 0 -- -- 63
2021-01-08 17:00:00 1.6 3 Sur 5 Sudeste 0 -- -- 57
2021-01-08 16:00:00 2.1 0 Calma 15 Sudoeste 0 -- -- 53
2021-01-08 15:00:00 2 2 Sur 17 Sudoeste 0 -- -- 52
2021-01-08 14:00:00 1.9 9 Sudoeste 22 Sudoeste 0 -- -- 57
2021-01-08 13:00:00 0.7 3 Sudoeste 7 Sudoeste 0 -- -- 65
2021-01-08 12:00:00 -2.2 2 Oeste 5 Oeste 0 -- -- 78
2021-01-08 11:00:00 -4.3 0 Calma 3 Oeste 0 -- -- 88
2021-01-08 10:00:00 -7.2 0 Calma 2 Este 0 -- -- 86
2021-01-08 09:00:00 -8.1 0 Calma 2 Sudeste 0 -- -- 84
2021-01-08 08:00:00 -7.7 0 Calma 4 Este 0 -- -- 83
2021-01-08 07:00:00 -7.3 0 Calma 3 Este 0 -- -- 84
2021-01-08 06:00:00 -6.6 0 Calma 3 Norte 0 -- -- 84
2021-01-08 05:00:00 -5.9 0 Calma 3 Este 0 -- -- 84
2021-01-08 04:00:00 -5.6 0 Calma 2 Nordeste 0 -- -- 82
2021-01-08 03:00:00 -4.8 0 Calma 4 Este 0 -- -- 80
2021-01-08 02:00:00 -3.4 2 Norte 4 Norte 0 -- -- 75
2021-01-08 01:00:00 -3 0 Calma 7 Sudeste 0 -- -- 77
2021-01-08 00:00:00 -3 0 Calma 5 Sudeste 0 -- -- 74
2021-01-07 23:00:00 -2.3 0 Calma 3 Este 0 -- -- 70
2021-01-07 22:00:00 -1.7 0 Calma 4 Nordeste 0 -- -- 69
2021-01-07 21:00:00 -1.7 0 Calma 2 Norte 0 -- -- 70
2021-01-07 20:00:00 -1.7 0 Calma 3 Nordeste 0 -- -- 71
2021-01-07 19:00:00 -1.4 0 Calma 8 Norte 0 -- -- 70
2021-01-07 18:00:00 -1.3 2 Sudeste 5 Este 0 -- -- 69
2021-01-07 17:00:00 -0.6 0 Calma 10 Norte 0 -- -- 64
2021-01-07 16:00:00 -0.3 3 Noroeste 7 Sur 0 -- -- 63
2021-01-07 15:00:00 -0.4 4 Sudeste 9 Sudeste 0 -- -- 65
2021-01-07 14:00:00 -1.2 2 Noroeste 5 Noroeste 0 -- -- 74
2021-01-07 13:00:00 -2.1 0 Calma 5 Oeste 0 -- -- 76
2021-01-07 12:00:00 -2.7 2 Noroeste 6 Norte 0 -- -- 84
2021-01-07 11:00:00 -3.7 0 Calma 3 Sudoeste 0 -- -- 86
2021-01-07 10:00:00 -5 0 Calma 2 Oeste 0 -- -- 87
2021-01-07 09:00:00 -6.5 0 Calma 2 Norte 0 -- -- 85
2021-01-07 08:00:00 -6.6 0 Calma 2 Oeste 0 -- -- 85
2021-01-07 07:00:00 -6.4 0 Calma 2 Norte 0 -- -- 84
2021-01-07 06:00:00 -6.2 0 Calma 3 Norte 0 -- -- 83
2021-01-07 05:00:00 -5.8 2 Sudeste 7 Sudeste 0 -- -- 84
2021-01-07 04:00:00 -5.8 0 Calma 2 Oeste 0 -- -- 81
2021-01-07 03:00:00 -5.1 0 Calma 2 Norte 0 -- -- 83
2021-01-07 02:00:00 -5.9 0 Calma 3 Este 0 -- -- 83
2021-01-07 01:00:00 -5.5 0 Calma 2 Nordeste 0 -- -- 81
2021-01-07 00:00:00 -4.5 0 Calma 4 Este 0 -- -- 79
2021-01-06 23:00:00 -4.5 0 Calma 3 Norte 0 -- -- 79
2021-01-06 22:00:00 -3.2 0 Calma 2 Noroeste 0 -- -- 76
2021-01-06 21:00:00 -2 0 Calma 7 Sudoeste 0 -- -- 73
2021-01-06 20:00:00 -1.2 2 Sudeste 6 Sudoeste 0 -- -- 70
2021-01-06 19:00:00 -0.4 3 Sudeste 14 Sur 0 -- -- 62
2021-01-06 18:00:00 1.2 9 Sudeste 24 Sur 0 -- -- 61
2021-01-06 17:00:00 3.1 8 Sur 26 Sudoeste 0 -- -- 57
2021-01-06 16:00:00 6.2 10 Sudoeste 20 Sudoeste 0 -- -- 47
2021-01-06 15:00:00 6.7 8 Sudoeste 15 Oeste 0 -- -- 42
2021-01-06 14:00:00 4.6 3 Oeste 10 Oeste 0 -- -- 38
2021-01-06 13:00:00 2.5 3 Sudoeste 8 Oeste 0 -- -- 52
2021-01-06 12:00:00 -0.8 4 Sudoeste 7 Oeste 0 -- -- 74
2021-01-06 11:00:00 -3.8 0 Calma 4 Sudoeste 0 -- -- 85
2021-01-06 10:00:00 -6.5 0 Calma 3 Norte 0 -- -- 88
2021-01-06 09:00:00 -8.4 0 Calma 2 Este 0 -- -- 83
2021-01-06 08:00:00 -8.1 0 Calma 0 Calma 0 -- -- 84
2021-01-06 07:00:00 -8.2 0 Calma 2 Nordeste 0 -- -- 83
2021-01-06 06:00:00 -7.1 0 Calma 6 Este 0 -- -- 84
2021-01-06 05:00:00 -7.1 0 Calma 2 Nordeste 0 -- -- 84
2021-01-06 04:00:00 -6.4 0 Calma 3 Este 0 -- -- 83
2021-01-06 03:00:00 -6 0 Calma 2 Nordeste 0 -- -- 84
2021-01-06 02:00:00 -5.4 0 Calma 3 Este 0 -- -- 81
2021-01-06 01:00:00 -4.8 0 Calma 4 Este 0 -- -- 80
2021-01-06 00:00:00 -4.3 0 Calma 2 Norte 0 -- -- 80
2021-01-05 23:00:00 -3.6 0 Calma 3 Este 0 -- -- 78
2021-01-05 22:00:00 -3.1 0 Calma 4 Este 0 -- -- 77
2021-01-05 21:00:00 -2.4 0 Calma 6 Norte 0 -- -- 73
2021-01-05 20:00:00 -1.3 3 Este 6 Sudeste 0 -- -- 68
2021-01-05 19:00:00 -0.1 3 Sudeste 15 Sur 0 -- -- 63
2021-01-05 18:00:00 1.2 7 Sudeste 14 Sudeste 0 -- -- 62
2021-01-05 17:00:00 2.3 4 Sudeste 25 Sudoeste 0 -- -- 57
2021-01-05 16:00:00 4.7 14 Sudoeste 29 Sudoeste 0 -- -- 52
2021-01-05 15:00:00 6.4 15 Sudoeste 23 Sudoeste 0 -- -- 45
2021-01-05 14:00:00 5.2 4 Oeste 9 Oeste 0 -- -- 46
2021-01-05 13:00:00 3.3 4 Oeste 8 Oeste 0 -- -- 53
2021-01-05 12:00:00 0.5 2 Noroeste 9 Noroeste 0 -- -- 72
2021-01-05 11:00:00 -1.8 0 Calma 5 Oeste 0 -- -- 87
2021-01-05 10:00:00 -5.1 0 Calma 4 Sudeste 0 -- -- 88
2021-01-05 09:00:00 -6.6 2 Oeste 5 Norte 0 -- -- 86
2021-01-05 08:00:00 -6.5 0 Calma 5 Sudeste 0 -- -- 86
2021-01-05 07:00:00 -6.2 2 Noroeste 6 Nordeste 0 -- -- 84
2021-01-05 06:00:00 -5.4 0 Calma 8 Sudeste 0 -- -- 83
2021-01-05 05:00:00 -5.1 0 Calma 14 Este 0 -- -- 83
2021-01-05 04:00:00 -4.8 9 Sudeste 14 Este 0 -- -- 86
2021-01-05 03:00:00 -4.6 0 Calma 4 Este 0 -- -- 83
2021-01-05 02:00:00 -3.8 0 Calma 4 Nordeste 0 -- -- 81
2021-01-05 01:00:00 -3.4 2 Este 5 Este 0 -- -- 80
2021-01-05 00:00:00 -2.7 2 Sudeste 5 Este 0 -- -- 77
2021-01-04 23:00:00 -1.5 2 Sur 6 Oeste 0 -- -- 73
2021-01-04 22:00:00 -0.2 4 Este 10 Este 0 -- -- 70
2021-01-04 21:00:00 -0.8 0 Calma 6 Este 0 -- -- 68
2021-01-04 20:00:00 0.4 3 Este 9 Sudeste 0 -- -- 63
2021-01-04 19:00:00 0.9 3 Noroeste 8 Este 0 -- -- 60
2021-01-04 18:00:00 2.4 3 Nordeste 12 Nordeste 0 -- -- 54
2021-01-04 17:00:00 3.6 6 Oeste 21 Oeste 0 -- -- 50
2021-01-04 16:00:00 4 13 Noroeste 26 Oeste 0 -- -- 51
2021-01-04 15:00:00 3.9 4 Noroeste 10 Norte 0 -- -- 49
2021-01-04 14:00:00 3.1 2 Sur 9 Oeste 0 -- -- 51
2021-01-04 13:00:00 2.7 2 Oeste 9 Oeste 0 -- -- 50
2021-01-04 12:00:00 1 2 Oeste 6 Oeste 0 -- -- 63
2021-01-04 11:00:00 -0.9 0 Calma 4 Sur 0 -- -- 73
2021-01-04 10:00:00 -4.4 0 Calma 3 Oeste 0 -- -- 86
2021-01-04 09:00:00 -6.1 0 Calma 2 Noroeste 0 -- -- 83
2021-01-04 08:00:00 -6.2 0 Calma 2 Este 0 -- -- 83
2021-01-04 07:00:00 -5.7 0 Calma 3 Norte 0 -- -- 82
2021-01-04 06:00:00 -5.5 0 Calma 2 Sudoeste 0 -- -- 81
2021-01-04 05:00:00 -4.6 0 Calma 5 Norte 0 -- -- 78
2021-01-04 04:00:00 -2.8 0 Calma 8 Este 0 -- -- 71
2021-01-04 03:00:00 -3.7 4 Este 10 Sudeste 0 -- -- 80
2021-01-04 02:00:00 -4.1 2 Sur 6 Sudeste 0 -- -- 77
2021-01-04 01:00:00 -3.4 0 Calma 4 Norte 0 -- -- 75
2021-01-04 00:00:00 -2.9 0 Calma 5 Este 0 -- -- 73
2021-01-03 23:00:00 -1.6 0 Calma 8 Este 0 -- -- 67
2021-01-03 22:00:00 -0.7 2 Sudoeste 13 Sudeste 0 -- -- 64
2021-01-03 21:00:00 -0.1 2 Nordeste 5 Nordeste 0 -- -- 60
2021-01-03 20:00:00 0.7 2 Este 8 Este 0 -- -- 56
2021-01-03 19:00:00 2.6 4 Este 13 Sur 0 -- -- 47
2021-01-03 18:00:00 3.5 5 Sudeste 13 Sudeste 0 -- -- 40
2021-01-03 17:00:00 6 4 Sudeste 17 Sudoeste 0 -- -- 33
2021-01-03 16:00:00 8.7 9 Sudoeste 25 Sudoeste 0 -- -- 29
2021-01-03 15:00:00 9.4 9 Sudoeste 23 Sudoeste 0 -- -- 26
2021-01-03 14:00:00 9.1 12 Sudoeste 21 Sudoeste 0 -- -- 26
2021-01-03 13:00:00 7.5 3 Sur 10 Oeste 0 -- -- 27
2021-01-03 12:00:00 4.4 2 Oeste 8 Sur 0 -- -- 39
2021-01-03 11:00:00 1 3 Sur 6 Sur 0 -- -- 47
2021-01-03 10:00:00 -1 3 Oeste 8 Sudeste 0 -- -- 52
2021-01-03 09:00:00 -2.9 6 Sudeste 11 Sudeste 0 -- -- 49
2021-01-03 08:00:00 -2.9 3 Norte 10 Nordeste 0 -- -- 51
2021-01-03 07:00:00 -1 6 Este 11 Este 0 -- -- 43
2021-01-03 06:00:00 -0.7 6 Este 12 Este 0 -- -- 42
2021-01-03 05:00:00 -0.6 5 Este 8 Este 0 -- -- 43
2021-01-03 04:00:00 -0.5 3 Norte 10 Nordeste 0 -- -- 47
2021-01-03 03:00:00 -0.8 4 Este 6 Este 0 -- -- 47
2021-01-03 02:00:00 -0.6 3 Nordeste 9 Este 0 -- -- 50
2021-01-03 01:00:00 -0.7 3 Este 6 Este 0 -- -- 47
2021-01-03 00:00:00 -0.8 0 Calma 5 Nordeste 0 -- -- 68
2021-01-02 23:00:00 0.1 4 Nordeste 6 Nordeste 0 -- -- 54
2021-01-02 22:00:00 -0.2 0 Calma 6 Noroeste 0 -- -- 57
2021-01-02 21:00:00 0.9 3 Noroeste 6 Este 0 -- -- 62
2021-01-02 20:00:00 1.5 2 Sudeste 7 Este 0 -- -- 55
2021-01-02 19:00:00 1.4 2 Sur 5 Este 0 -- -- 62
2021-01-02 18:00:00 2.2 3 Este 5 Este 0 -- -- 57
2021-01-02 17:00:00 3.1 0 Calma 4 Este 0 -- -- 78
2021-01-02 16:00:00 3.6 0 Calma 5 Oeste 0 -- -- 80
2021-01-02 15:00:00 1.6 0 Calma 4 Sudoeste 0 -- -- 98
2021-01-02 14:00:00 -0.3 0 Calma 5 Oeste 0 -- -- 95